Nikiforos — D5IW7 — position and weather

sailwx.info

Track history (hours):
 
Tides and Currents Weather Stations Pressure Air Temp Water Temp Dewpoint Dewpoint Depression Visibility Wind Speed Wind Dir Waves Ship Positions

Nikiforos

Last reported at 2018-Jun-23 20:13 UTC. Time now 2018-Jul-17 04:12 UTC.
Position N 01°18' E 103°20'.
Warning: this ship's position is 23 days out of date.

Length 186 m; draft 8.9 m.

Type: Cargo ship. MMSI: 636017011.

Date/timePositionNaut miles runAvg speedWind from/ knotsBaromVisibWave heightAir tempDewpointWater temp
2018-Jun-23 20:13N 01°18' E 103°20'311.0
2018-Jun-23 19:58N 01°16' E 103°22'610.7
2018-Jun-23 19:24N 01°13' E 103°27'410.7
2018-Jun-23 18:59N 01°12' E 103°32'510.4
2018-Jun-23 18:30N 01°12' E 103°36'5 9.1
2018-Jun-23 17:59N 01°10' E 103°41'4 8.0
2018-Jun-23 17:29N 01°09' E 103°45'4 7.5
2018-Jun-23 17:00N 01°10' E 103°48'4 8.0
2018-Jun-23 16:30N 01°12' E 103°52'4 8.3
2018-Jun-23 15:59N 01°14' E 103°55'3 6.4
2018-Jun-23 15:29N 01°16' E 103°58'1 0.6
2018-Jun-23 13:56N 01°17' E 103°58'0 0.2
2018-Jun-23 13:17N 01°17' E 103°58'0 0.2
2018-Jun-23 12:59N 01°17' E 103°58'0 0.0
2018-Jun-23 12:29N 01°17' E 103°58'0 0.0
2018-Jun-23 11:59N 01°17' E 103°58'0 0.1
2018-Jun-23 11:29N 01°17' E 103°58'0 0.0
2018-Jun-23 10:53N 01°17' E 103°58'0 0.0
2018-Jun-23 10:08N 01°17' E 103°58'0 0.1
2018-Jun-23 09:38N 01°17' E 103°58'0 0.2
2018-Jun-23 09:23N 01°17' E 103°58'0 0.0
2018-Jun-23 08:59N 01°17' E 103°58'0 0.0
2018-Jun-23 08:02N 01°17' E 103°58'0 0.0
2018-Jun-23 07:53N 01°17' E 103°58'0 0.1
2018-Jun-23 07:23N 01°17' E 103°58'0 0.2
2018-Jun-23 06:55N 01°17' E 103°58'0 0.1
2018-Jun-23 06:26N 01°17' E 103°58'0 0.1
2018-Jun-23 05:41N 01°17' E 103°58'0 0.0
2018-Jun-23 05:26N 01°17' E 103°58'0 0.1
2018-Jun-23 04:58N 01°17' E 103°58'0 0.2
2018-Jun-23 04:17N 01°17' E 103°58'0 0.1
2018-Jun-23 03:38N 01°17' E 103°58'0 0.0
2018-Jun-23 03:20N 01°17' E 103°58'0 0.2
2018-Jun-23 02:50N 01°17' E 103°58'0 0.1
2018-Jun-23 02:25N 01°17' E 103°58'0 0.2
2018-Jun-23 01:45N 01°17' E 103°58'0 1.1
2018-Jun-23 01:29N 01°17' E 103°58'1 2.8
2018-Jun-23 01:00N 01°16' E 103°59'2 3.1
2018-Jun-23 00:30N 01°16' E 104°00'3 4.9
2018-Jun-22 23:59N 01°16' E 104°03'3 5.9
2018-Jun-22 23:29N 01°17' E 104°06'3 5.8
2018-Jun-22 22:56N 01°17' E 104°09'3 6.2
2018-Jun-22 22:30N 01°17' E 104°11'3 6.2
2018-Jun-22 21:57N 01°18' E 104°15'5 9.3
2018-Jun-22 21:28N 01°19' E 104°19'510.2
2018-Jun-22 20:59N 01°22' E 104°23'5 9.9
2018-Jun-22 20:29N 01°25' E 104°27'  
Track history (hours):
 
Tides and Currents Weather Stations Pressure Air Temp Water Temp Dewpoint Dewpoint Depression Visibility Wind Speed Wind Dir Waves Ship Positions

Nikiforos

Last reported at 2018-Jun-23 20:13 UTC. Time now 2018-Jul-17 04:12 UTC.
Position N 01°18' E 103°20'.
Warning: this ship's position is 23 days out of date.

Length 186 m; draft 8.9 m.

Type: Cargo ship. MMSI: 636017011.

Date/timePositionNaut miles runAvg speedWind from/ knotsBaromVisibWave heightAir tempDewpointWater temp
2018-Jun-23 20:13N 01°18' E 103°20'311.0
2018-Jun-23 19:58N 01°16' E 103°22'610.7
2018-Jun-23 19:24N 01°13' E 103°27'410.7
2018-Jun-23 18:59N 01°12' E 103°32'510.4
2018-Jun-23 18:30N 01°12' E 103°36'5 9.1
2018-Jun-23 17:59N 01°10' E 103°41'4 8.0
2018-Jun-23 17:29N 01°09' E 103°45'4 7.5
2018-Jun-23 17:00N 01°10' E 103°48'4 8.0
2018-Jun-23 16:30N 01°12' E 103°52'4 8.3
2018-Jun-23 15:59N 01°14' E 103°55'3 6.4
2018-Jun-23 15:29N 01°16' E 103°58'1 0.6
2018-Jun-23 13:56N 01°17' E 103°58'0 0.2
2018-Jun-23 13:17N 01°17' E 103°58'0 0.2
2018-Jun-23 12:59N 01°17' E 103°58'0 0.0
2018-Jun-23 12:29N 01°17' E 103°58'0 0.0
2018-Jun-23 11:59N 01°17' E 103°58'0 0.1
2018-Jun-23 11:29N 01°17' E 103°58'0 0.0
2018-Jun-23 10:53N 01°17' E 103°58'0 0.0
2018-Jun-23 10:08N 01°17' E 103°58'0 0.1
2018-Jun-23 09:38N 01°17' E 103°58'0 0.2
2018-Jun-23 09:23N 01°17' E 103°58'0 0.0
2018-Jun-23 08:59N 01°17' E 103°58'0 0.0
2018-Jun-23 08:02N 01°17' E 103°58'0 0.0
2018-Jun-23 07:53N 01°17' E 103°58'0 0.1
2018-Jun-23 07:23N 01°17' E 103°58'0 0.2
2018-Jun-23 06:55N 01°17' E 103°58'0 0.1
2018-Jun-23 06:26N 01°17' E 103°58'0 0.1
2018-Jun-23 05:41N 01°17' E 103°58'0 0.0
2018-Jun-23 05:26N 01°17' E 103°58'0 0.1
2018-Jun-23 04:58N 01°17' E 103°58'0 0.2
2018-Jun-23 04:17N 01°17' E 103°58'0 0.1
2018-Jun-23 03:38N 01°17' E 103°58'0 0.0
2018-Jun-23 03:20N 01°17' E 103°58'0 0.2
2018-Jun-23 02:50N 01°17' E 103°58'0 0.1
2018-Jun-23 02:25N 01°17' E 103°58'0 0.2
2018-Jun-23 01:45N 01°17' E 103°58'0 1.1
2018-Jun-23 01:29N 01°17' E 103°58'1 2.8
2018-Jun-23 01:00N 01°16' E 103°59'2 3.1
2018-Jun-23 00:30N 01°16' E 104°00'3 4.9
2018-Jun-22 23:59N 01°16' E 104°03'3 5.9
2018-Jun-22 23:29N 01°17' E 104°06'3 5.8
2018-Jun-22 22:56N 01°17' E 104°09'3 6.2
2018-Jun-22 22:30N 01°17' E 104°11'3 6.2
2018-Jun-22 21:57N 01°18' E 104°15'5 9.3
2018-Jun-22 21:28N 01°19' E 104°19'510.2
2018-Jun-22 20:59N 01°22' E 104°23'5 9.9
2018-Jun-22 20:29N 01°25' E 104°27'  

Dump ship's entire track history